North Ocean City, Maryland
Current Conditions -  °F | °C
As of 2:53 PM on Thursday 30 Oct 2014 (Local Time) from KOXB Reporting Station
Broken Clouds Broken Clouds  
Wind Chill: 63°   Ceiling: 4900
Heat Index: 63°   Visibility: 10mi
Dew Point: 43°   Wind: 3mph
Humidity: 48%   Direction: NA
Pressure: 29.98"   Gusts: NA
Location:  38.3984°N, 75.0667°W
Report Text: KOXB 301853Z AUTO VRB03KT 10SM BKN049 17/06 A2998 RMK AO2 SLP153 T01720061 TSNO
Loading
Personal Weather Stations






























Interactive Weather Map
Tropical Storm Tracking
New forecast layout! Learn more

10-Day Weather Forecast

Advertisements
Track Severe Weather on mobile